sensor_id;sensor_type;location;lat;lon;timestamp;P1;durP1;ratioP1;P2;durP2;ratioP2
18290;SDS011;9271;48.590;8.866;2023-02-16T00:00:58;16.47;;;11.57;;
18290;SDS011;9271;48.590;8.866;2023-02-16T00:03:27;19.90;;;13.23;;
18290;SDS011;9271;48.590;8.866;2023-02-16T00:05:53;17.40;;;12.43;;
18290;SDS011;9271;48.590;8.866;2023-02-16T00:08:20;17.57;;;12.50;;
18290;SDS011;9271;48.590;8.866;2023-02-16T00:10:47;17.70;;;12.37;;
18290;SDS011;9271;48.590;8.866;2023-02-16T00:13:28;15.50;;;11.40;;
18290;SDS011;9271;48.590;8.866;2023-02-16T00:16:12;14.17;;;10.57;;
18290;SDS011;9271;48.590;8.866;2023-02-16T00:18:42;16.53;;;11.63;;
18290;SDS011;9271;48.590;8.866;2023-02-16T00:21:08;16.93;;;11.17;;
18290;SDS011;9271;48.590;8.866;2023-02-16T00:23:35;17.33;;;11.27;;
18290;SDS011;9271;48.590;8.866;2023-02-16T00:26:02;17.87;;;11.53;;
18290;SDS011;9271;48.590;8.866;2023-02-16T00:28:29;16.17;;;11.77;;
18290;SDS011;9271;48.590;8.866;2023-02-16T00:30:56;17.67;;;12.10;;
18290;SDS011;9271;48.590;8.866;2023-02-16T00:33:23;16.07;;;12.10;;
18290;SDS011;9271;48.590;8.866;2023-02-16T00:35:51;18.87;;;11.83;;
18290;SDS011;9271;48.590;8.866;2023-02-16T00:38:17;18.53;;;12.37;;
18290;SDS011;9271;48.590;8.866;2023-02-16T00:40:44;18.40;;;11.60;;
18290;SDS011;9271;48.590;8.866;2023-02-16T00:43:12;19.17;;;12.00;;
18290;SDS011;9271;48.590;8.866;2023-02-16T00:45:50;17.37;;;11.97;;
18290;SDS011;9271;48.590;8.866;2023-02-16T00:48:17;16.90;;;11.90;;
18290;SDS011;9271;48.590;8.866;2023-02-16T00:50:44;18.57;;;11.77;;
18290;SDS011;9271;48.590;8.866;2023-02-16T00:53:12;18.23;;;12.70;;
18290;SDS011;9271;48.590;8.866;2023-02-16T00:55:39;16.30;;;11.43;;
18290;SDS011;9271;48.590;8.866;2023-02-16T00:58:10;17.10;;;11.10;;
18290;SDS011;9271;48.590;8.866;2023-02-16T01:00:40;16.37;;;11.87;;
18290;SDS011;9271;48.590;8.866;2023-02-16T01:03:11;17.67;;;11.57;;
18290;SDS011;9271;48.590;8.866;2023-02-16T01:05:39;16.97;;;10.90;;
18290;SDS011;9271;48.590;8.866;2023-02-16T01:08:08;21.40;;;10.80;;
18290;SDS011;9271;48.590;8.866;2023-02-16T01:10:54;13.30;;;9.40;;
18290;SDS011;9271;48.590;8.866;2023-02-16T01:13:36;13.83;;;9.23;;
18290;SDS011;9271;48.590;8.866;2023-02-16T01:16:13;12.00;;;9.60;;
18290;SDS011;9271;48.590;8.866;2023-02-16T01:18:40;11.97;;;8.73;;
18290;SDS011;9271;48.590;8.866;2023-02-16T01:21:07;15.60;;;10.10;;
18290;SDS011;9271;48.590;8.866;2023-02-16T01:23:34;13.03;;;10.07;;
18290;SDS011;9271;48.590;8.866;2023-02-16T01:26:02;14.30;;;9.60;;
18290;SDS011;9271;48.590;8.866;2023-02-16T01:28:29;14.43;;;9.83;;
18290;SDS011;9271;48.590;8.866;2023-02-16T01:30:59;11.50;;;9.33;;
18290;SDS011;9271;48.590;8.866;2023-02-16T01:33:26;14.67;;;9.57;;
18290;SDS011;9271;48.590;8.866;2023-02-16T01:35:53;13.93;;;10.27;;
18290;SDS011;9271;48.590;8.866;2023-02-16T01:38:22;12.53;;;9.73;;
18290;SDS011;9271;48.590;8.866;2023-02-16T01:40:52;14.47;;;10.00;;
18290;SDS011;9271;48.590;8.866;2023-02-16T01:43:28;13.40;;;9.47;;
18290;SDS011;9271;48.590;8.866;2023-02-16T01:46:10;14.63;;;9.83;;
18290;SDS011;9271;48.590;8.866;2023-02-16T01:48:41;14.23;;;9.10;;
18290;SDS011;9271;48.590;8.866;2023-02-16T01:51:11;11.40;;;8.97;;
18290;SDS011;9271;48.590;8.866;2023-02-16T01:53:41;12.43;;;8.93;;
18290;SDS011;9271;48.590;8.866;2023-02-16T01:56:14;10.83;;;8.93;;
18290;SDS011;9271;48.590;8.866;2023-02-16T01:58:49;12.43;;;8.93;;
18290;SDS011;9271;48.590;8.866;2023-02-16T02:01:27;12.27;;;8.53;;
18290;SDS011;9271;48.590;8.866;2023-02-16T02:04:07;10.27;;;8.37;;
18290;SDS011;9271;48.590;8.866;2023-02-16T02:06:54;10.80;;;8.80;;
18290;SDS011;9271;48.590;8.866;2023-02-16T02:09:22;12.63;;;8.47;;
18290;SDS011;9271;48.590;8.866;2023-02-16T02:11:55;11.13;;;8.83;;
18290;SDS011;9271;48.590;8.866;2023-02-16T02:14:29;10.40;;;8.23;;
18290;SDS011;9271;48.590;8.866;2023-02-16T02:16:58;10.50;;;8.30;;
18290;SDS011;9271;48.590;8.866;2023-02-16T02:19:27;10.07;;;7.67;;
18290;SDS011;9271;48.590;8.866;2023-02-16T02:22:02;10.27;;;8.20;;
18290;SDS011;9271;48.590;8.866;2023-02-16T02:27:59;11.13;;;8.23;;
18290;SDS011;9271;48.590;8.866;2023-02-16T02:30:37;9.07;;;7.53;;
18290;SDS011;9271;48.590;8.866;2023-02-16T02:36:04;12.47;;;8.40;;
18290;SDS011;9271;48.590;8.866;2023-02-16T02:38:43;9.73;;;7.93;;
18290;SDS011;9271;48.590;8.866;2023-02-16T02:41:19;10.70;;;8.30;;
18290;SDS011;9271;48.590;8.866;2023-02-16T02:44:15;10.07;;;8.00;;
18290;SDS011;9271;48.590;8.866;2023-02-16T02:46:45;8.57;;;7.60;;
18290;SDS011;9271;48.590;8.866;2023-02-16T02:49:12;10.07;;;7.80;;
18290;SDS011;9271;48.590;8.866;2023-02-16T02:51:39;9.70;;;7.60;;
18290;SDS011;9271;48.590;8.866;2023-02-16T02:54:06;9.70;;;7.43;;
18290;SDS011;9271;48.590;8.866;2023-02-16T02:56:55;12.70;;;8.00;;
18290;SDS011;9271;48.590;8.866;2023-02-16T02:59:43;8.67;;;7.30;;
18290;SDS011;9271;48.590;8.866;2023-02-16T03:02:30;9.33;;;7.43;;
18290;SDS011;9271;48.590;8.866;2023-02-16T03:05:00;10.47;;;7.33;;
18290;SDS011;9271;48.590;8.866;2023-02-16T03:07:28;8.83;;;7.43;;
18290;SDS011;9271;48.590;8.866;2023-02-16T03:10:25;9.10;;;7.07;;
18290;SDS011;9271;48.590;8.866;2023-02-16T03:13:12;10.47;;;7.53;;
18290;SDS011;9271;48.590;8.866;2023-02-16T03:15:44;8.53;;;7.10;;
18290;SDS011;9271;48.590;8.866;2023-02-16T03:18:13;9.17;;;7.20;;
18290;SDS011;9271;48.590;8.866;2023-02-16T03:20:59;9.20;;;7.30;;
18290;SDS011;9271;48.590;8.866;2023-02-16T03:23:45;9.73;;;7.83;;
18290;SDS011;9271;48.590;8.866;2023-02-16T03:26:33;10.63;;;7.60;;
18290;SDS011;9271;48.590;8.866;2023-02-16T03:29:18;9.60;;;7.60;;
18290;SDS011;9271;48.590;8.866;2023-02-16T03:31:47;10.47;;;7.73;;
18290;SDS011;9271;48.590;8.866;2023-02-16T03:34:14;10.17;;;8.03;;
18290;SDS011;9271;48.590;8.866;2023-02-16T03:36:43;10.53;;;7.60;;
18290;SDS011;9271;48.590;8.866;2023-02-16T03:39:12;9.33;;;7.37;;
18290;SDS011;9271;48.590;8.866;2023-02-16T03:41:41;10.97;;;8.33;;
18290;SDS011;9271;48.590;8.866;2023-02-16T03:44:11;8.57;;;7.67;;
18290;SDS011;9271;48.590;8.866;2023-02-16T03:46:37;10.87;;;7.23;;
18290;SDS011;9271;48.590;8.866;2023-02-16T03:49:04;11.77;;;7.53;;
18290;SDS011;9271;48.590;8.866;2023-02-16T03:51:31;8.53;;;7.20;;
18290;SDS011;9271;48.590;8.866;2023-02-16T03:53:57;11.10;;;7.27;;
18290;SDS011;9271;48.590;8.866;2023-02-16T03:56:24;8.00;;;7.20;;
18290;SDS011;9271;48.590;8.866;2023-02-16T03:58:52;8.63;;;7.20;;
18290;SDS011;9271;48.590;8.866;2023-02-16T04:01:19;15.13;;;8.47;;
18290;SDS011;9271;48.590;8.866;2023-02-16T04:03:46;9.83;;;8.00;;
18290;SDS011;9271;48.590;8.866;2023-02-16T04:06:12;9.50;;;8.00;;
18290;SDS011;9271;48.590;8.866;2023-02-16T04:08:39;9.60;;;7.80;;
18290;SDS011;9271;48.590;8.866;2023-02-16T04:11:06;9.90;;;7.90;;
18290;SDS011;9271;48.590;8.866;2023-02-16T04:13:46;8.73;;;7.50;;
18290;SDS011;9271;48.590;8.866;2023-02-16T04:16:14;9.60;;;7.60;;
18290;SDS011;9271;48.590;8.866;2023-02-16T04:18:41;9.37;;;7.47;;
18290;SDS011;9271;48.590;8.866;2023-02-16T04:21:08;9.37;;;7.27;;
18290;SDS011;9271;48.590;8.866;2023-02-16T04:23:34;10.30;;;7.37;;
18290;SDS011;9271;48.590;8.866;2023-02-16T04:26:01;8.03;;;7.20;;
18290;SDS011;9271;48.590;8.866;2023-02-16T04:28:28;10.27;;;7.87;;
18290;SDS011;9271;48.590;8.866;2023-02-16T04:30:54;11.60;;;9.90;;
18290;SDS011;9271;48.590;8.866;2023-02-16T04:33:22;12.77;;;10.40;;
18290;SDS011;9271;48.590;8.866;2023-02-16T04:35:49;13.57;;;10.87;;
18290;SDS011;9271;48.590;8.866;2023-02-16T04:38:15;13.83;;;11.27;;
18290;SDS011;9271;48.590;8.866;2023-02-16T04:40:42;15.60;;;13.23;;
18290;SDS011;9271;48.590;8.866;2023-02-16T04:43:09;13.40;;;12.00;;
18290;SDS011;9271;48.590;8.866;2023-02-16T04:45:35;14.70;;;12.90;;
18290;SDS011;9271;48.590;8.866;2023-02-16T04:48:02;14.07;;;12.23;;
18290;SDS011;9271;48.590;8.866;2023-02-16T04:50:30;15.80;;;13.23;;
18290;SDS011;9271;48.590;8.866;2023-02-16T04:52:57;15.27;;;12.80;;
18290;SDS011;9271;48.590;8.866;2023-02-16T04:55:23;13.83;;;12.03;;
18290;SDS011;9271;48.590;8.866;2023-02-16T04:57:50;15.47;;;13.23;;
18290;SDS011;9271;48.590;8.866;2023-02-16T05:00:17;14.43;;;12.03;;
18290;SDS011;9271;48.590;8.866;2023-02-16T05:02:45;13.50;;;11.67;;
18290;SDS011;9271;48.590;8.866;2023-02-16T05:05:11;13.57;;;11.43;;
18290;SDS011;9271;48.590;8.866;2023-02-16T05:07:40;14.93;;;11.47;;
18290;SDS011;9271;48.590;8.866;2023-02-16T05:10:07;11.83;;;9.97;;
18290;SDS011;9271;48.590;8.866;2023-02-16T05:12:34;13.57;;;10.47;;
18290;SDS011;9271;48.590;8.866;2023-02-16T05:15:26;12.07;;;9.83;;
18290;SDS011;9271;48.590;8.866;2023-02-16T05:17:53;10.93;;;9.50;;
18290;SDS011;9271;48.590;8.866;2023-02-16T05:20:20;10.63;;;9.10;;
18290;SDS011;9271;48.590;8.866;2023-02-16T05:23:08;11.90;;;9.37;;
18290;SDS011;9271;48.590;8.866;2023-02-16T05:25:35;10.43;;;9.00;;
18290;SDS011;9271;48.590;8.866;2023-02-16T05:28:02;11.23;;;9.43;;
18290;SDS011;9271;48.590;8.866;2023-02-16T05:30:29;10.93;;;9.23;;
18290;SDS011;9271;48.590;8.866;2023-02-16T05:32:56;11.63;;;9.03;;
18290;SDS011;9271;48.590;8.866;2023-02-16T05:35:23;13.33;;;8.90;;
18290;SDS011;9271;48.590;8.866;2023-02-16T05:37:49;12.23;;;8.87;;
18290;SDS011;9271;48.590;8.866;2023-02-16T05:40:17;10.93;;;8.67;;
18290;SDS011;9271;48.590;8.866;2023-02-16T05:42:44;11.50;;;9.33;;
18290;SDS011;9271;48.590;8.866;2023-02-16T05:45:11;11.07;;;8.77;;
18290;SDS011;9271;48.590;8.866;2023-02-16T05:47:37;10.80;;;8.70;;
18290;SDS011;9271;48.590;8.866;2023-02-16T05:50:05;11.67;;;9.23;;
18290;SDS011;9271;48.590;8.866;2023-02-16T05:52:32;12.63;;;9.10;;
18290;SDS011;9271;48.590;8.866;2023-02-16T05:54:59;11.97;;;9.20;;
18290;SDS011;9271;48.590;8.866;2023-02-16T05:57:27;11.87;;;9.27;;
18290;SDS011;9271;48.590;8.866;2023-02-16T05:59:54;12.20;;;8.80;;
18290;SDS011;9271;48.590;8.866;2023-02-16T06:02:21;10.80;;;8.57;;
18290;SDS011;9271;48.590;8.866;2023-02-16T06:04:47;11.70;;;8.83;;
18290;SDS011;9271;48.590;8.866;2023-02-16T06:07:14;10.60;;;8.37;;
18290;SDS011;9271;48.590;8.866;2023-02-16T06:09:41;10.53;;;8.20;;
18290;SDS011;9271;48.590;8.866;2023-02-16T06:12:08;13.53;;;8.87;;
18290;SDS011;9271;48.590;8.866;2023-02-16T06:14:36;12.33;;;8.83;;
18290;SDS011;9271;48.590;8.866;2023-02-16T06:17:03;10.67;;;8.60;;
18290;SDS011;9271;48.590;8.866;2023-02-16T06:19:29;13.60;;;8.60;;
18290;SDS011;9271;48.590;8.866;2023-02-16T06:21:56;10.00;;;7.87;;
18290;SDS011;9271;48.590;8.866;2023-02-16T06:24:23;10.27;;;8.70;;
18290;SDS011;9271;48.590;8.866;2023-02-16T06:26:50;9.40;;;8.37;;
18290;SDS011;9271;48.590;8.866;2023-02-16T06:29:16;11.33;;;8.97;;
18290;SDS011;9271;48.590;8.866;2023-02-16T06:31:45;9.20;;;8.20;;
18290;SDS011;9271;48.590;8.866;2023-02-16T06:34:11;10.27;;;8.37;;
18290;SDS011;9271;48.590;8.866;2023-02-16T06:36:38;10.63;;;8.80;;
18290;SDS011;9271;48.590;8.866;2023-02-16T06:39:05;11.30;;;8.50;;
18290;SDS011;9271;48.590;8.866;2023-02-16T06:41:32;9.60;;;8.37;;
18290;SDS011;9271;48.590;8.866;2023-02-16T06:44:02;14.90;;;10.17;;
18290;SDS011;9271;48.590;8.866;2023-02-16T06:46:30;12.40;;;9.27;;
18290;SDS011;9271;48.590;8.866;2023-02-16T06:48:58;14.53;;;8.80;;
18290;SDS011;9271;48.590;8.866;2023-02-16T06:51:26;12.67;;;9.60;;
18290;SDS011;9271;48.590;8.866;2023-02-16T06:53:53;13.07;;;9.93;;
18290;SDS011;9271;48.590;8.866;2023-02-16T06:56:20;12.93;;;9.60;;
18290;SDS011;9271;48.590;8.866;2023-02-16T06:58:47;11.93;;;9.10;;
18290;SDS011;9271;48.590;8.866;2023-02-16T07:01:14;11.30;;;9.13;;
18290;SDS011;9271;48.590;8.866;2023-02-16T07:03:46;14.50;;;9.13;;
18290;SDS011;9271;48.590;8.866;2023-02-16T07:06:15;11.33;;;9.40;;
18290;SDS011;9271;48.590;8.866;2023-02-16T07:08:42;13.80;;;9.67;;
18290;SDS011;9271;48.590;8.866;2023-02-16T07:11:08;11.00;;;9.33;;
18290;SDS011;9271;48.590;8.866;2023-02-16T07:13:35;13.77;;;9.43;;
18290;SDS011;9271;48.590;8.866;2023-02-16T07:16:03;12.13;;;10.17;;
18290;SDS011;9271;48.590;8.866;2023-02-16T07:18:30;13.73;;;10.47;;
18290;SDS011;9271;48.590;8.866;2023-02-16T07:20:57;16.77;;;11.80;;
18290;SDS011;9271;48.590;8.866;2023-02-16T07:23:26;13.93;;;10.20;;
18290;SDS011;9271;48.590;8.866;2023-02-16T07:25:53;12.87;;;9.37;;
18290;SDS011;9271;48.590;8.866;2023-02-16T07:28:19;12.87;;;9.87;;
18290;SDS011;9271;48.590;8.866;2023-02-16T07:30:46;11.83;;;9.53;;
18290;SDS011;9271;48.590;8.866;2023-02-16T07:33:13;13.37;;;9.90;;
18290;SDS011;9271;48.590;8.866;2023-02-16T07:35:40;13.83;;;9.50;;
18290;SDS011;9271;48.590;8.866;2023-02-16T07:38:07;13.23;;;9.30;;
18290;SDS011;9271;48.590;8.866;2023-02-16T07:40:35;12.83;;;9.73;;
18290;SDS011;9271;48.590;8.866;2023-02-16T07:43:02;11.47;;;9.20;;
18290;SDS011;9271;48.590;8.866;2023-02-16T07:45:30;9.53;;;8.07;;
18290;SDS011;9271;48.590;8.866;2023-02-16T07:47:57;10.17;;;8.10;;
18290;SDS011;9271;48.590;8.866;2023-02-16T07:50:25;10.93;;;8.57;;
18290;SDS011;9271;48.590;8.866;2023-02-16T07:52:51;12.17;;;9.23;;
18290;SDS011;9271;48.590;8.866;2023-02-16T07:55:18;11.63;;;8.83;;
18290;SDS011;9271;48.590;8.866;2023-02-16T07:57:46;13.67;;;8.97;;
18290;SDS011;9271;48.590;8.866;2023-02-16T08:00:13;10.87;;;8.63;;
18290;SDS011;9271;48.590;8.866;2023-02-16T08:02:40;11.67;;;9.37;;
18290;SDS011;9271;48.590;8.866;2023-02-16T08:05:07;14.80;;;11.83;;
18290;SDS011;9271;48.590;8.866;2023-02-16T08:07:34;11.97;;;9.87;;
18290;SDS011;9271;48.590;8.866;2023-02-16T08:10:00;11.90;;;9.47;;
18290;SDS011;9271;48.590;8.866;2023-02-16T08:12:27;12.37;;;9.93;;
18290;SDS011;9271;48.590;8.866;2023-02-16T08:14:55;12.33;;;9.90;;
18290;SDS011;9271;48.590;8.866;2023-02-16T08:17:21;17.03;;;12.57;;
18290;SDS011;9271;48.590;8.866;2023-02-16T08:19:48;12.53;;;9.73;;
18290;SDS011;9271;48.590;8.866;2023-02-16T08:22:15;12.27;;;9.53;;
18290;SDS011;9271;48.590;8.866;2023-02-16T08:24:42;14.43;;;10.00;;
18290;SDS011;9271;48.590;8.866;2023-02-16T08:27:09;11.73;;;9.60;;
18290;SDS011;9271;48.590;8.866;2023-02-16T08:29:36;12.10;;;9.90;;
18290;SDS011;9271;48.590;8.866;2023-02-16T08:32:04;12.17;;;10.13;;
18290;SDS011;9271;48.590;8.866;2023-02-16T08:34:32;11.20;;;10.07;;
18290;SDS011;9271;48.590;8.866;2023-02-16T08:36:59;11.07;;;9.90;;
18290;SDS011;9271;48.590;8.866;2023-02-16T08:39:27;11.33;;;10.13;;
18290;SDS011;9271;48.590;8.866;2023-02-16T08:41:55;10.60;;;9.60;;
18290;SDS011;9271;48.590;8.866;2023-02-16T08:44:22;10.57;;;9.53;;
18290;SDS011;9271;48.590;8.866;2023-02-16T08:46:50;10.83;;;9.67;;
18290;SDS011;9271;48.590;8.866;2023-02-16T08:49:20;11.80;;;10.20;;
18290;SDS011;9271;48.590;8.866;2023-02-16T08:51:48;11.20;;;10.07;;
18290;SDS011;9271;48.590;8.866;2023-02-16T08:54:17;11.07;;;9.93;;
18290;SDS011;9271;48.590;8.866;2023-02-16T08:56:46;10.57;;;9.47;;
18290;SDS011;9271;48.590;8.866;2023-02-16T08:59:14;10.43;;;8.97;;
18290;SDS011;9271;48.590;8.866;2023-02-16T09:01:42;10.20;;;9.20;;
18290;SDS011;9271;48.590;8.866;2023-02-16T09:04:09;11.77;;;9.57;;
18290;SDS011;9271;48.590;8.866;2023-02-16T09:06:38;10.70;;;9.60;;
18290;SDS011;9271;48.590;8.866;2023-02-16T09:09:06;10.60;;;9.47;;
18290;SDS011;9271;48.590;8.866;2023-02-16T09:11:33;11.30;;;9.33;;
18290;SDS011;9271;48.590;8.866;2023-02-16T09:14:01;11.60;;;9.43;;
18290;SDS011;9271;48.590;8.866;2023-02-16T09:16:29;15.53;;;9.07;;
18290;SDS011;9271;48.590;8.866;2023-02-16T09:18:58;12.07;;;9.87;;
18290;SDS011;9271;48.590;8.866;2023-02-16T09:21:26;10.77;;;9.60;;
18290;SDS011;9271;48.590;8.866;2023-02-16T09:23:57;9.90;;;8.73;;
18290;SDS011;9271;48.590;8.866;2023-02-16T09:26:26;13.23;;;10.30;;
18290;SDS011;9271;48.590;8.866;2023-02-16T09:28:55;13.10;;;9.67;;
18290;SDS011;9271;48.590;8.866;2023-02-16T09:31:22;11.47;;;9.77;;
18290;SDS011;9271;48.590;8.866;2023-02-16T09:33:52;13.00;;;8.97;;
18290;SDS011;9271;48.590;8.866;2023-02-16T09:36:20;11.20;;;9.20;;
18290;SDS011;9271;48.590;8.866;2023-02-16T09:38:47;11.77;;;9.07;;
18290;SDS011;9271;48.590;8.866;2023-02-16T09:41:18;11.53;;;9.37;;
18290;SDS011;9271;48.590;8.866;2023-02-16T09:43:50;12.73;;;9.90;;
18290;SDS011;9271;48.590;8.866;2023-02-16T09:46:22;11.83;;;9.20;;
18290;SDS011;9271;48.590;8.866;2023-02-16T09:48:51;9.67;;;8.77;;
18290;SDS011;9271;48.590;8.866;2023-02-16T09:51:18;11.10;;;8.07;;
18290;SDS011;9271;48.590;8.866;2023-02-16T09:53:49;9.80;;;8.67;;
18290;SDS011;9271;48.590;8.866;2023-02-16T09:56:23;12.37;;;8.97;;
18290;SDS011;9271;48.590;8.866;2023-02-16T09:58:56;8.90;;;7.97;;
18290;SDS011;9271;48.590;8.866;2023-02-16T10:01:28;9.57;;;8.07;;
18290;SDS011;9271;48.590;8.866;2023-02-16T10:04:04;9.17;;;8.20;;
18290;SDS011;9271;48.590;8.866;2023-02-16T10:06:49;9.60;;;8.50;;
18290;SDS011;9271;48.590;8.866;2023-02-16T10:09:25;11.37;;;8.00;;
18290;SDS011;9271;48.590;8.866;2023-02-16T10:11:56;13.90;;;7.83;;
18290;SDS011;9271;48.590;8.866;2023-02-16T10:14:27;9.23;;;7.43;;
18290;SDS011;9271;48.590;8.866;2023-02-16T10:17:00;11.50;;;7.50;;
18290;SDS011;9271;48.590;8.866;2023-02-16T10:19:34;9.10;;;7.60;;
18290;SDS011;9271;48.590;8.866;2023-02-16T10:22:05;7.87;;;7.00;;
18290;SDS011;9271;48.590;8.866;2023-02-16T10:24:38;8.53;;;7.60;;
18290;SDS011;9271;48.590;8.866;2023-02-16T10:27:15;8.70;;;7.63;;
18290;SDS011;9271;48.590;8.866;2023-02-16T10:29:42;9.53;;;6.93;;
18290;SDS011;9271;48.590;8.866;2023-02-16T10:32:18;8.00;;;7.25;;
18290;SDS011;9271;48.590;8.866;2023-02-16T10:34:54;12.60;;;7.30;;
18290;SDS011;9271;48.590;8.866;2023-02-16T10:37:34;8.48;;;6.75;;
18290;SDS011;9271;48.590;8.866;2023-02-16T10:40:13;7.85;;;7.07;;
18290;SDS011;9271;48.590;8.866;2023-02-16T10:42:49;8.20;;;5.68;;
18290;SDS011;9271;48.590;8.866;2023-02-16T10:45:22;7.60;;;6.72;;
18290;SDS011;9271;48.590;8.866;2023-02-16T10:47:52;10.60;;;6.93;;
18290;SDS011;9271;48.590;8.866;2023-02-16T10:50:20;7.78;;;6.55;;
18290;SDS011;9271;48.590;8.866;2023-02-16T10:52:50;9.15;;;6.40;;
18290;SDS011;9271;48.590;8.866;2023-02-16T10:55:19;7.57;;;6.60;;
18290;SDS011;9271;48.590;8.866;2023-02-16T10:57:51;7.63;;;6.82;;
18290;SDS011;9271;48.590;8.866;2023-02-16T11:00:20;7.65;;;5.63;;
18290;SDS011;9271;48.590;8.866;2023-02-16T11:02:52;7.75;;;5.85;;
18290;SDS011;9271;48.590;8.866;2023-02-16T11:05:28;7.30;;;6.10;;
18290;SDS011;9271;48.590;8.866;2023-02-16T11:07:58;6.17;;;5.53;;
18290;SDS011;9271;48.590;8.866;2023-02-16T11:10:33;6.60;;;5.87;;
18290;SDS011;9271;48.590;8.866;2023-02-16T11:13:05;6.77;;;5.97;;
18290;SDS011;9271;48.590;8.866;2023-02-16T11:15:42;6.20;;;5.50;;
18290;SDS011;9271;48.590;8.866;2023-02-16T11:18:21;7.18;;;5.82;;
18290;SDS011;9271;48.590;8.866;2023-02-16T11:20:54;5.68;;;5.07;;
18290;SDS011;9271;48.590;8.866;2023-02-16T11:23:22;6.38;;;5.78;;
18290;SDS011;9271;48.590;8.866;2023-02-16T11:25:53;7.05;;;6.30;;
18290;SDS011;9271;48.590;8.866;2023-02-16T11:28:28;6.33;;;5.70;;
18290;SDS011;9271;48.590;8.866;2023-02-16T11:31:04;9.77;;;5.55;;
18290;SDS011;9271;48.590;8.866;2023-02-16T11:33:39;5.53;;;5.00;;
18290;SDS011;9271;48.590;8.866;2023-02-16T11:36:19;9.48;;;5.43;;
18290;SDS011;9271;48.590;8.866;2023-02-16T11:38:56;7.35;;;4.70;;
18290;SDS011;9271;48.590;8.866;2023-02-16T11:41:25;9.48;;;4.47;;
18290;SDS011;9271;48.590;8.866;2023-02-16T11:43:54;5.93;;;4.97;;
18290;SDS011;9271;48.590;8.866;2023-02-16T11:46:22;6.70;;;4.10;;
18290;SDS011;9271;48.590;8.866;2023-02-16T11:48:49;5.15;;;4.70;;
18290;SDS011;9271;48.590;8.866;2023-02-16T11:51:27;5.13;;;4.57;;
18290;SDS011;9271;48.590;8.866;2023-02-16T11:53:58;6.03;;;4.93;;
18290;SDS011;9271;48.590;8.866;2023-02-16T11:56:27;4.82;;;4.20;;
18290;SDS011;9271;48.590;8.866;2023-02-16T11:59:11;5.53;;;4.60;;
18290;SDS011;9271;48.590;8.866;2023-02-16T12:04:47;5.80;;;4.35;;
18290;SDS011;9271;48.590;8.866;2023-02-16T12:07:26;6.25;;;4.28;;
18290;SDS011;9271;48.590;8.866;2023-02-16T12:10:05;7.10;;;4.63;;
18290;SDS011;9271;48.590;8.866;2023-02-16T12:12:36;8.55;;;4.65;;
18290;SDS011;9271;48.590;8.866;2023-02-16T12:15:13;5.80;;;4.43;;
18290;SDS011;9271;48.590;8.866;2023-02-16T12:17:49;7.38;;;5.03;;
18290;SDS011;9271;48.590;8.866;2023-02-16T12:20:31;9.85;;;5.50;;
18290;SDS011;9271;48.590;8.866;2023-02-16T12:23:09;5.35;;;4.75;;
18290;SDS011;9271;48.590;8.866;2023-02-16T12:25:52;6.93;;;4.72;;
18290;SDS011;9271;48.590;8.866;2023-02-16T12:28:30;8.30;;;4.15;;
18290;SDS011;9271;48.590;8.866;2023-02-16T12:31:08;3.15;;;2.85;;
18290;SDS011;9271;48.590;8.866;2023-02-16T12:33:46;4.85;;;2.40;;
18290;SDS011;9271;48.590;8.866;2023-02-16T12:36:33;3.35;;;2.40;;
18290;SDS011;9271;48.590;8.866;2023-02-16T12:39:14;2.63;;;2.38;;
18290;SDS011;9271;48.590;8.866;2023-02-16T12:41:46;4.28;;;2.78;;
18290;SDS011;9271;48.590;8.866;2023-02-16T12:44:23;2.78;;;2.40;;
18290;SDS011;9271;48.590;8.866;2023-02-16T12:46:56;5.18;;;2.78;;
18290;SDS011;9271;48.590;8.866;2023-02-16T12:49:28;5.20;;;2.80;;
18290;SDS011;9271;48.590;8.866;2023-02-16T12:52:00;4.40;;;2.50;;
18290;SDS011;9271;48.590;8.866;2023-02-16T12:54:32;10.10;;;3.17;;
18290;SDS011;9271;48.590;8.866;2023-02-16T12:57:04;5.18;;;2.53;;
18290;SDS011;9271;48.590;8.866;2023-02-16T12:59:36;4.80;;;2.67;;
18290;SDS011;9271;48.590;8.866;2023-02-16T13:02:10;3.60;;;3.00;;
18290;SDS011;9271;48.590;8.866;2023-02-16T13:04:43;3.33;;;2.58;;
18290;SDS011;9271;48.590;8.866;2023-02-16T13:07:15;6.90;;;2.55;;
18290;SDS011;9271;48.590;8.866;2023-02-16T13:09:49;2.90;;;2.70;;
18290;SDS011;9271;48.590;8.866;2023-02-16T13:12:24;3.67;;;2.63;;
18290;SDS011;9271;48.590;8.866;2023-02-16T13:14:59;5.17;;;2.47;;
18290;SDS011;9271;48.590;8.866;2023-02-16T13:17:33;4.03;;;2.60;;
18290;SDS011;9271;48.590;8.866;2023-02-16T13:20:10;5.83;;;2.70;;
18290;SDS011;9271;48.590;8.866;2023-02-16T13:22:58;3.63;;;2.50;;
18290;SDS011;9271;48.590;8.866;2023-02-16T13:25:56;3.90;;;2.53;;
18290;SDS011;9271;48.590;8.866;2023-02-16T13:28:54;2.73;;;2.37;;
18290;SDS011;9271;48.590;8.866;2023-02-16T13:31:31;3.77;;;2.83;;
18290;SDS011;9271;48.590;8.866;2023-02-16T13:34:11;5.57;;;2.90;;
18290;SDS011;9271;48.590;8.866;2023-02-16T13:36:57;4.03;;;2.80;;
18290;SDS011;9271;48.590;8.866;2023-02-16T13:39:45;2.90;;;2.57;;
18290;SDS011;9271;48.590;8.866;2023-02-16T13:45:40;5.03;;;3.03;;
18290;SDS011;9271;48.590;8.866;2023-02-16T13:48:12;5.53;;;3.00;;
18290;SDS011;9271;48.590;8.866;2023-02-16T13:50:42;3.53;;;2.50;;
18290;SDS011;9271;48.590;8.866;2023-02-16T13:53:16;2.50;;;2.30;;
18290;SDS011;9271;48.590;8.866;2023-02-16T13:55:45;3.23;;;2.50;;
18290;SDS011;9271;48.590;8.866;2023-02-16T13:58:28;4.30;;;2.80;;
18290;SDS011;9271;48.590;8.866;2023-02-16T14:00:57;3.07;;;2.77;;
18290;SDS011;9271;48.590;8.866;2023-02-16T14:03:33;4.83;;;2.60;;
18290;SDS011;9271;48.590;8.866;2023-02-16T14:12:01;6.97;;;2.57;;
18290;SDS011;9271;48.590;8.866;2023-02-16T14:14:31;2.53;;;2.30;;
18290;SDS011;9271;48.590;8.866;2023-02-16T14:17:14;4.57;;;2.57;;
18290;SDS011;9271;48.590;8.866;2023-02-16T14:19:47;5.23;;;3.03;;
18290;SDS011;9271;48.590;8.866;2023-02-16T14:22:18;5.83;;;2.70;;
18290;SDS011;9271;48.590;8.866;2023-02-16T14:24:50;8.13;;;2.90;;
18290;SDS011;9271;48.590;8.866;2023-02-16T14:30:12;4.03;;;2.70;;
18290;SDS011;9271;48.590;8.866;2023-02-16T14:32:45;5.63;;;2.80;;
18290;SDS011;9271;48.590;8.866;2023-02-16T14:35:15;2.77;;;2.53;;
18290;SDS011;9271;48.590;8.866;2023-02-16T14:37:51;6.77;;;2.77;;
18290;SDS011;9271;48.590;8.866;2023-02-16T14:40:20;4.07;;;2.90;;
18290;SDS011;9271;48.590;8.866;2023-02-16T14:42:52;6.13;;;2.77;;
18290;SDS011;9271;48.590;8.866;2023-02-16T14:45:36;6.00;;;2.73;;
18290;SDS011;9271;48.590;8.866;2023-02-16T14:51:30;3.93;;;3.07;;
18290;SDS011;9271;48.590;8.866;2023-02-16T14:54:20;4.97;;;3.13;;
18290;SDS011;9271;48.590;8.866;2023-02-16T14:57:05;6.97;;;3.00;;
18290;SDS011;9271;48.590;8.866;2023-02-16T14:59:38;5.50;;;3.00;;
18290;SDS011;9271;48.590;8.866;2023-02-16T15:02:27;3.37;;;2.80;;
18290;SDS011;9271;48.590;8.866;2023-02-16T15:04:55;4.80;;;2.97;;
18290;SDS011;9271;48.590;8.866;2023-02-16T15:07:22;4.67;;;3.17;;
18290;SDS011;9271;48.590;8.866;2023-02-16T15:09:54;4.47;;;2.97;;
18290;SDS011;9271;48.590;8.866;2023-02-16T15:12:22;4.97;;;2.70;;
18290;SDS011;9271;48.590;8.866;2023-02-16T15:14:54;4.67;;;3.23;;
18290;SDS011;9271;48.590;8.866;2023-02-16T15:17:25;4.90;;;3.13;;
18290;SDS011;9271;48.590;8.866;2023-02-16T15:19:56;7.83;;;3.47;;
18290;SDS011;9271;48.590;8.866;2023-02-16T15:22:29;6.27;;;3.27;;
18290;SDS011;9271;48.590;8.866;2023-02-16T15:24:58;5.20;;;3.53;;
18290;SDS011;9271;48.590;8.866;2023-02-16T15:27:26;6.83;;;3.63;;
18290;SDS011;9271;48.590;8.866;2023-02-16T15:30:07;5.87;;;3.83;;
18290;SDS011;9271;48.590;8.866;2023-02-16T15:32:48;4.63;;;3.90;;
18290;SDS011;9271;48.590;8.866;2023-02-16T15:35:27;7.10;;;3.83;;
18290;SDS011;9271;48.590;8.866;2023-02-16T15:37:59;4.47;;;3.10;;
18290;SDS011;9271;48.590;8.866;2023-02-16T15:40:29;4.90;;;2.87;;